Time;durP1;ratioP1;P1;durP2;ratioP2;P2;SDS_P1;SDS_P2;PMS_P1;PMS_P2;Temp;Humidity;BMP_temperature;BMP_pressure;BME280_temperature;BME280_humidity;BME280_pressure;Samples;Min_cycle;Max_cycle;Signal;HPM_P1;HPM_P2
2022/08/17 00:01:08;;;;;;;5.00;4.50;;;19.30;69.20;;;;;;5010953;28;20439;-66
2022/08/17 00:03:37;;;;;;;6.27;5.30;;;19.30;69.30;;;;;;4996538;28;20482;-66
2022/08/17 00:06:10;;;;;;;5.80;4.83;;;19.30;69.70;;;;;;4995664;28;20436;-66
2022/08/17 00:08:39;;;;;;;6.30;4.90;;;19.20;69.70;;;;;;4996242;28;20881;-66
2022/08/17 00:11:08;;;;;;;6.10;5.00;;;19.20;69.50;;;;;;5014014;28;20477;-66
2022/08/17 00:13:37;;;;;;;8.73;6.63;;;19.20;69.50;;;;;;5007450;28;20846;-66
2022/08/17 00:16:08;;;;;;;9.73;6.80;;;19.10;69.80;;;;;;4996455;28;20440;-66
2022/08/17 00:18:35;;;;;;;6.30;5.20;;;19.00;70.50;;;;;;4995122;28;20507;-68
2022/08/17 00:21:07;;;;;;;7.13;6.43;;;18.90;70.70;;;;;;4996037;28;20439;-66
2022/08/17 00:23:34;;;;;;;8.30;6.50;;;18.70;71.40;;;;;;4994612;28;20495;-66
2022/08/17 00:26:01;;;;;;;7.33;5.20;;;18.60;71.80;;;;;;4994855;28;20467;-66
2022/08/17 00:28:28;;;;;;;9.97;6.90;;;18.50;72.20;;;;;;4996279;28;20534;-66
2022/08/17 00:30:55;;;;;;;8.37;6.90;;;18.50;72.60;;;;;;4995080;28;20447;-66
2022/08/17 00:33:26;;;;;;;7.13;6.43;;;18.50;72.90;;;;;;4995498;28;20523;-66
2022/08/17 00:35:54;;;;;;;6.67;6.03;;;18.50;73.10;;;;;;4993520;28;20440;-66
2022/08/17 00:38:23;;;;;;;7.80;5.97;;;18.60;73.10;;;;;;4995934;28;20644;-66
2022/08/17 00:40:54;;;;;;;6.00;5.47;;;18.60;72.90;;;;;;5008965;28;20466;-66
2022/08/17 00:43:26;;;;;;;7.47;6.70;;;18.60;73.10;;;;;;5015467;28;20531;-66
2022/08/17 00:45:54;;;;;;;9.70;6.17;;;18.60;73.20;;;;;;5000040;28;20844;-66
2022/08/17 00:48:21;;;;;;;7.00;6.23;;;18.60;73.60;;;;;;4987824;28;20946;-66
2022/08/17 00:50:56;;;;;;;7.07;6.37;;;18.50;73.90;;;;;;4995686;28;20448;-66
2022/08/17 00:53:26;;;;;;;6.67;6.00;;;18.60;73.90;;;;;;5007426;28;20933;-66
2022/08/17 00:55:54;;;;;;;6.23;5.63;;;18.60;73.70;;;;;;5015262;28;20518;-66
2022/08/17 00:58:22;;;;;;;8.27;5.77;;;18.50;72.90;;;;;;5001402;28;20515;-66
2022/08/17 01:00:49;;;;;;;9.57;5.57;;;18.30;73.30;;;;;;4995562;28;20603;-66
2022/08/17 01:03:20;;;;;;;11.10;7.80;;;18.20;74.40;;;;;;5005371;28;20953;-67
2022/08/17 01:05:50;;;;;;;9.90;6.23;;;18.00;74.20;;;;;;5015025;28;20819;-66
2022/08/17 01:08:23;;;;;;;5.80;4.67;;;17.90;74.10;;;;;;5002718;28;20444;-66
2022/08/17 01:11:00;;;;;;;7.20;5.90;;;17.90;74.30;;;;;;4995243;28;20533;-66
2022/08/17 01:13:28;;;;;;;7.50;6.30;;;17.80;74.70;;;;;;5005867;28;20454;-66
2022/08/17 01:15:59;;;;;;;9.37;5.40;;;17.70;76.60;;;;;;5014499;28;20446;-66
2022/08/17 01:18:27;;;;;;;6.80;6.10;;;17.60;77.00;;;;;;5010426;28;20570;-66
2022/08/17 01:20:56;;;;;;;6.60;5.90;;;17.50;77.50;;;;;;5014607;28;20501;-66
2022/08/17 01:23:26;;;;;;;7.97;6.43;;;17.50;77.30;;;;;;5002897;28;20981;-66
2022/08/17 01:25:56;;;;;;;7.93;5.90;;;17.50;77.40;;;;;;4995455;28;20444;-67
2022/08/17 01:28:25;;;;;;;7.40;6.30;;;17.50;77.60;;;;;;5003913;28;20493;-68
2022/08/17 01:30:55;;;;;;;10.00;5.53;;;17.50;77.50;;;;;;5014458;28;20441;-66
2022/08/17 01:33:22;;;;;;;8.43;6.70;;;17.50;77.30;;;;;;5004573;28;20525;-66
2022/08/17 01:35:49;;;;;;;7.87;6.20;;;17.50;78.00;;;;;;4994804;28;20992;-66
2022/08/17 01:38:17;;;;;;;6.37;5.73;;;17.50;78.20;;;;;;5008419;28;20569;-66
2022/08/17 01:40:51;;;;;;;6.40;5.80;;;17.50;78.60;;;;;;5011179;28;20439;-66
2022/08/17 01:43:22;;;;;;;8.80;6.03;;;17.60;78.80;;;;;;5014311;28;20517;-66
2022/08/17 01:45:53;;;;;;;8.17;6.10;;;17.50;79.10;;;;;;5005217;28;20444;-67
2022/08/17 01:48:21;;;;;;;9.13;6.60;;;17.50;78.60;;;;;;5013514;28;20450;-67
2022/08/17 01:50:50;;;;;;;7.03;6.30;;;17.40;78.40;;;;;;5013961;28;20438;-66
2022/08/17 01:53:24;;;;;;;8.27;5.63;;;17.20;78.90;;;;;;5012338;28;20439;-66
2022/08/17 01:55:56;;;;;;;7.37;6.67;;;17.10;79.10;;;;;;5013794;28;20792;-66
2022/08/17 01:58:23;;;;;;;8.50;7.70;;;17.10;79.50;;;;;;4999568;28;20531;-66
2022/08/17 02:00:52;;;;;;;7.20;6.50;;;17.10;79.90;;;;;;4994673;28;20464;-66
2022/08/17 02:03:20;;;;;;;8.90;6.13;;;17.10;80.00;;;;;;4993061;28;20518;-68
2022/08/17 02:05:48;;;;;;;8.30;6.23;;;17.10;80.30;;;;;;4994568;28;20438;-66
2022/08/17 02:08:16;;;;;;;8.00;6.60;;;17.10;80.80;;;;;;4992882;28;20537;-66
2022/08/17 02:10:44;;;;;;;9.90;6.57;;;17.10;81.50;;;;;;4994200;28;20494;-66
2022/08/17 02:13:13;;;;;;;8.70;6.97;;;17.00;81.60;;;;;;4992731;28;20490;-66
2022/08/17 02:15:40;;;;;;;7.77;7.07;;;17.00;82.20;;;;;;4994016;28;20479;-66
2022/08/17 02:18:09;;;;;;;7.93;5.90;;;17.00;82.20;;;;;;4993118;28;20608;-66
2022/08/17 02:20:37;;;;;;;8.27;6.80;;;17.00;82.80;;;;;;4993901;28;20479;-66
2022/08/17 02:23:07;;;;;;;7.43;6.73;;;16.90;82.70;;;;;;4992607;28;20447;-66
2022/08/17 02:25:35;;;;;;;7.33;6.57;;;16.90;82.50;;;;;;4994033;28;20455;-66
2022/08/17 02:28:03;;;;;;;7.80;6.93;;;16.80;82.60;;;;;;4999255;28;20447;-65
2022/08/17 02:30:32;;;;;;;9.80;7.37;;;16.80;83.60;;;;;;5004908;28;20432;-66
2022/08/17 02:32:59;;;;;;;8.87;7.97;;;16.70;84.20;;;;;;4993700;28;20483;-66
2022/08/17 02:35:29;;;;;;;9.03;8.23;;;16.70;84.50;;;;;;4997293;28;20502;-66
2022/08/17 02:37:56;;;;;;;12.03;8.80;;;16.80;84.50;;;;;;5011892;28;20489;-72
2022/08/17 02:40:28;;;;;;;8.80;8.00;;;16.80;84.90;;;;;;5007570;28;20531;-66
2022/08/17 02:42:55;;;;;;;10.20;7.17;;;16.70;85.90;;;;;;4993540;28;20440;-66
2022/08/17 02:45:23;;;;;;;9.30;6.60;;;16.70;86.00;;;;;;4994853;28;20463;-67
2022/08/17 02:47:52;;;;;;;13.80;6.90;;;16.80;86.00;;;;;;5013097;28;20481;-66
2022/08/17 02:50:21;;;;;;;8.27;7.47;;;16.80;85.70;;;;;;5006867;28;21070;-66
2022/08/17 02:52:50;;;;;;;8.30;7.10;;;16.90;85.60;;;;;;4993475;28;20942;-66
2022/08/17 02:55:19;;;;;;;8.60;7.73;;;16.90;85.60;;;;;;4993472;28;20442;-66
2022/08/17 02:57:47;;;;;;;7.63;6.70;;;16.90;85.50;;;;;;5008806;28;20493;-66
2022/08/17 03:00:18;;;;;;;7.47;6.57;;;16.90;84.70;;;;;;4991659;28;20479;-66
2022/08/17 03:02:45;;;;;;;8.13;7.33;;;16.90;85.20;;;;;;5013125;28;20485;-66
2022/08/17 03:05:16;;;;;;;7.87;6.83;;;16.80;85.80;;;;;;5012228;28;20443;-69
2022/08/17 03:07:43;;;;;;;8.20;7.40;;;16.80;85.40;;;;;;4974107;28;20468;-66
2022/08/17 03:10:11;;;;;;;7.70;6.90;;;16.80;84.70;;;;;;4973413;28;20448;-66
2022/08/17 03:12:40;;;;;;;8.77;7.33;;;16.70;85.00;;;;;;5010221;28;20438;-66
2022/08/17 03:15:10;;;;;;;8.80;7.13;;;16.70;85.80;;;;;;5012878;28;20446;-66
2022/08/17 03:17:37;;;;;;;7.27;6.50;;;16.70;86.10;;;;;;4992914;28;20526;-67
2022/08/17 03:20:06;;;;;;;7.63;6.83;;;16.60;85.90;;;;;;4993373;28;20883;-66
2022/08/17 03:22:38;;;;;;;7.40;6.70;;;16.60;86.00;;;;;;5009120;28;20513;-66
2022/08/17 03:25:07;;;;;;;8.97;8.03;;;16.60;86.50;;;;;;5012761;28;20490;-66
2022/08/17 03:27:35;;;;;;;9.60;8.57;;;16.50;86.40;;;;;;4994267;28;20534;-66
2022/08/17 03:30:02;;;;;;;7.93;6.93;;;16.50;87.10;;;;;;4996576;28;20475;-69
2022/08/17 03:32:29;;;;;;;8.03;7.33;;;16.40;87.70;;;;;;5004495;28;20522;-66
2022/08/17 03:34:59;;;;;;;10.60;8.27;;;16.40;88.00;;;;;;5002317;28;20435;-66
2022/08/17 03:37:27;;;;;;;9.70;7.17;;;16.40;89.00;;;;;;4996487;28;20534;-66
2022/08/17 03:39:55;;;;;;;10.17;8.03;;;16.40;89.00;;;;;;4992564;28;20475;-67
2022/08/17 03:42:25;;;;;;;8.40;7.60;;;16.30;88.70;;;;;;5000913;28;20474;-66
2022/08/17 03:44:53;;;;;;;7.37;6.67;;;16.40;88.60;;;;;;5012766;28;20427;-66
2022/08/17 03:58:30;;;;;;;9.00;7.67;;;16.40;88.20;;;;;;4994459;28;20442;-66
2022/08/17 04:00:59;;;;;;;7.20;6.27;;;16.40;88.00;;;;;;4992604;28;20443;-66
2022/08/17 04:03:26;;;;;;;7.73;7.03;;;16.40;88.10;;;;;;5007417;28;20454;-66
2022/08/17 04:05:53;;;;;;;7.40;6.70;;;16.50;88.10;;;;;;5012687;28;20447;-66
2022/08/17 04:08:20;;;;;;;8.20;7.40;;;16.40;87.90;;;;;;4996752;28;20476;-67
2022/08/17 04:10:48;;;;;;;7.90;6.80;;;16.50;87.90;;;;;;4994867;28;20479;-66
2022/08/17 04:13:15;;;;;;;8.30;7.07;;;16.40;89.10;;;;;;5008556;28;20477;-66
2022/08/17 04:15:42;;;;;;;8.60;7.57;;;16.30;88.00;;;;;;5016570;28;20852;-66
2022/08/17 04:18:09;;;;;;;7.80;6.77;;;16.30;87.70;;;;;;5002946;28;20539;-66
2022/08/17 04:20:36;;;;;;;7.43;6.73;;;16.30;87.50;;;;;;4996508;28;20890;-66
2022/08/17 04:23:09;;;;;;;7.00;6.30;;;16.30;87.50;;;;;;5005622;28;20438;-66
2022/08/17 04:25:38;;;;;;;8.30;6.03;;;16.40;88.00;;;;;;5015782;28;20513;-66
2022/08/17 04:28:07;;;;;;;9.23;6.53;;;16.40;87.90;;;;;;5004583;28;20479;-66
2022/08/17 04:30:35;;;;;;;8.00;5.80;;;16.40;88.10;;;;;;4996229;28;20804;-66
2022/08/17 04:33:07;;;;;;;7.20;6.50;;;16.40;88.30;;;;;;5002807;28;20435;-66
2022/08/17 04:35:36;;;;;;;8.63;7.30;;;16.40;88.30;;;;;;5015570;28;20521;-66
2022/08/17 04:38:04;;;;;;;7.40;6.70;;;16.40;88.40;;;;;;5005518;28;20811;-66
2022/08/17 04:43:19;;;;;;;12.00;6.47;;;16.50;89.40;;;;;;5004262;28;20545;-67
2022/08/17 04:45:48;;;;;;;8.50;5.93;;;16.50;88.70;;;;;;5003083;28;20457;-70
2022/08/17 04:48:15;;;;;;;6.70;5.90;;;16.60;89.00;;;;;;4992802;28;20808;-66
2022/08/17 04:50:45;;;;;;;7.13;6.43;;;16.60;88.80;;;;;;4987547;28;20510;-68
2022/08/17 04:53:13;;;;;;;7.10;5.70;;;16.60;88.50;;;;;;4989126;28;20449;-66
2022/08/17 04:55:40;;;;;;;11.23;7.17;;;16.60;88.30;;;;;;4992497;28;20542;-66
2022/08/17 04:58:08;;;;;;;10.37;6.37;;;16.50;88.20;;;;;;4994601;28;20438;-66
2022/08/17 05:00:37;;;;;;;7.13;6.40;;;16.40;89.00;;;;;;4992985;28;20478;-66
2022/08/17 05:03:05;;;;;;;8.93;7.00;;;16.40;89.50;;;;;;4994216;28;20502;-66
2022/08/17 05:05:35;;;;;;;8.00;6.07;;;16.30;90.20;;;;;;4991728;28;20531;-66
2022/08/17 05:08:04;;;;;;;9.40;6.80;;;16.30;90.30;;;;;;4993659;28;20436;-66
2022/08/17 05:10:33;;;;;;;8.77;7.83;;;16.30;90.50;;;;;;4992689;28;21029;-66
2022/08/17 05:13:04;;;;;;;8.53;7.60;;;16.40;90.60;;;;;;4994252;28;20446;-66
2022/08/17 05:15:32;;;;;;;8.83;6.70;;;16.40;90.70;;;;;;4992005;28;20474;-66
2022/08/17 05:18:00;;;;;;;7.03;6.33;;;16.50;90.70;;;;;;4992281;28;20438;-67
2022/08/17 05:20:28;;;;;;;7.53;6.70;;;16.60;90.70;;;;;;4991801;28;20582;-67
2022/08/17 05:22:58;;;;;;;8.80;8.00;;;16.60;90.50;;;;;;4991502;28;20475;-68
2022/08/17 05:25:28;;;;;;;7.37;6.67;;;16.70;90.60;;;;;;4991856;28;20427;-66
2022/08/17 05:27:55;;;;;;;9.83;8.00;;;16.80;90.90;;;;;;4992929;28;20518;-70
2022/08/17 05:30:23;;;;;;;8.30;7.50;;;16.80;90.80;;;;;;4991675;28;20522;-66
2022/08/17 05:32:54;;;;;;;9.20;7.70;;;16.80;90.60;;;;;;4993146;28;20535;-67
2022/08/17 05:35:23;;;;;;;8.37;7.00;;;16.80;90.90;;;;;;4992384;28;21012;-66
2022/08/17 05:37:51;;;;;;;8.20;7.23;;;17.00;91.30;;;;;;4993700;28;20526;-66
2022/08/17 05:40:19;;;;;;;9.37;7.67;;;17.10;91.50;;;;;;4990286;28;20574;-66
2022/08/17 05:42:47;;;;;;;9.63;7.80;;;17.20;91.40;;;;;;4993750;28;20486;-66
2022/08/17 05:45:15;;;;;;;13.17;7.87;;;17.30;91.30;;;;;;4993305;28;20793;-66
2022/08/17 05:47:44;;;;;;;7.77;7.00;;;17.50;91.10;;;;;;4992741;28;20446;-67
2022/08/17 05:50:19;;;;;;;11.17;7.23;;;17.60;91.30;;;;;;4986509;28;20527;-67
2022/08/17 05:52:55;;;;;;;9.27;7.50;;;17.60;90.90;;;;;;4985008;28;20909;-66
2022/08/17 05:55:32;;;;;;;8.63;7.10;;;17.70;90.80;;;;;;4989289;28;20462;-67
2022/08/17 05:58:11;;;;;;;8.53;7.00;;;17.90;90.50;;;;;;4990798;28;20533;-66
2022/08/17 06:00:46;;;;;;;9.27;7.70;;;18.00;90.20;;;;;;4992447;28;20578;-67
2022/08/17 06:03:34;;;;;;;9.00;6.97;;;18.10;90.20;;;;;;4990438;28;20444;-66
2022/08/17 06:06:14;;;;;;;8.33;7.43;;;18.20;90.60;;;;;;4991186;28;20451;-67
2022/08/17 06:08:50;;;;;;;8.20;7.40;;;18.40;90.80;;;;;;4992929;28;20475;-67
2022/08/17 06:11:28;;;;;;;8.13;7.43;;;18.60;90.80;;;;;;4990740;28;20506;-67
2022/08/17 06:14:13;;;;;;;8.63;7.20;;;18.70;90.70;;;;;;4992324;28;20482;-67
2022/08/17 06:16:44;;;;;;;8.00;6.87;;;18.80;88.50;;;;;;4991034;28;20536;-66
2022/08/17 06:19:16;;;;;;;8.13;6.20;;;18.80;85.50;;;;;;4992904;28;20475;-66
2022/08/17 06:21:46;;;;;;;7.07;6.37;;;18.80;85.50;;;;;;4991058;28;20436;-68
2022/08/17 06:24:28;;;;;;;8.13;6.47;;;18.90;86.20;;;;;;4992399;28;20833;-66
2022/08/17 06:26:59;;;;;;;8.40;6.50;;;19.00;85.80;;;;;;4990250;28;20533;-67
2022/08/17 06:29:37;;;;;;;7.37;6.20;;;19.10;86.20;;;;;;4991159;28;20478;-67
2022/08/17 06:32:05;;;;;;;10.97;6.60;;;19.20;85.40;;;;;;4991865;28;20487;-67
2022/08/17 06:34:33;;;;;;;9.00;6.40;;;19.30;86.20;;;;;;4987641;28;20443;-66
2022/08/17 06:37:08;;;;;;;7.20;6.43;;;19.40;86.60;;;;;;4992293;28;20939;-66
2022/08/17 06:39:48;;;;;;;7.17;6.30;;;19.50;85.90;;;;;;4990708;28;20466;-66
2022/08/17 06:42:25;;;;;;;8.00;6.80;;;19.70;85.00;;;;;;4990582;28;20808;-70
2022/08/17 06:44:57;;;;;;;7.00;6.13;;;19.90;84.70;;;;;;4991454;28;20449;-68
2022/08/17 06:47:28;;;;;;;7.47;6.77;;;20.00;83.30;;;;;;4991729;28;20494;-66
2022/08/17 06:50:04;;;;;;;7.10;5.30;;;20.10;81.90;;;;;;4991755;28;20448;-66
2022/08/17 06:52:34;;;;;;;9.10;5.40;;;20.20;81.60;;;;;;4992228;28;20873;-66
2022/08/17 06:55:08;;;;;;;6.10;5.50;;;20.40;81.10;;;;;;4992076;28;20446;-67
2022/08/17 06:57:39;;;;;;;10.23;6.50;;;20.50;80.30;;;;;;4986049;28;20480;-67
2022/08/17 07:00:11;;;;;;;7.50;5.50;;;20.60;81.00;;;;;;4997041;28;20579;-67
2022/08/17 07:02:47;;;;;;;8.17;4.77;;;20.80;80.20;;;;;;4998305;28;20438;-66
2022/08/17 07:05:17;;;;;;;7.43;5.60;;;20.90;81.20;;;;;;4996494;28;20472;-66
2022/08/17 07:08:01;;;;;;;5.70;5.10;;;21.10;81.40;;;;;;4991478;28;20470;-67
2022/08/17 07:10:35;;;;;;;6.17;5.53;;;21.30;81.50;;;;;;4993828;28;20443;-67
2022/08/17 07:13:25;;;;;;;8.07;5.67;;;21.50;81.10;;;;;;4997600;28;20469;-67
2022/08/17 07:15:59;;;;;;;5.10;4.60;;;21.70;81.00;;;;;;4993331;28;20453;-67
2022/08/17 07:18:31;;;;;;;8.60;5.50;;;22.00;80.70;;;;;;4994765;28;20859;-67
2022/08/17 07:21:07;;;;;;;6.00;5.43;;;22.20;80.20;;;;;;4993687;28;20567;-67
2022/08/17 07:23:45;;;;;;;5.77;4.93;;;22.40;78.30;;;;;;4993468;28;20503;-67
2022/08/17 07:26:13;;;;;;;7.30;4.60;;;22.60;78.20;;;;;;4993397;28;20442;-67
2022/08/17 07:28:41;;;;;;;6.07;5.47;;;22.80;77.60;;;;;;4994599;28;20499;-66
2022/08/17 07:31:12;;;;;;;6.30;5.03;;;23.00;76.20;;;;;;4995003;28;20873;-71
2022/08/17 07:33:39;;;;;;;6.03;4.90;;;23.20;74.00;;;;;;4997216;28;20455;-67
2022/08/17 07:36:24;;;;;;;8.23;5.97;;;23.40;72.10;;;;;;4996646;28;20497;-67
2022/08/17 07:38:56;;;;;;;6.03;5.43;;;23.60;72.60;;;;;;4995079;28;20447;-68
2022/08/17 07:41:24;;;;;;;5.60;5.00;;;23.70;71.80;;;;;;4993948;28;20550;-67
2022/08/17 07:43:52;;;;;;;5.13;4.63;;;24.00;72.00;;;;;;4994021;28;20487;-68
2022/08/17 07:49:33;;;;;;;6.00;4.43;;;24.30;71.70;;;;;;4995804;28;20443;-67
2022/08/17 07:52:03;;;;;;;4.63;3.93;;;24.60;71.10;;;;;;4995931;28;20444;-68
2022/08/17 07:54:34;;;;;;;8.43;5.07;;;24.90;70.90;;;;;;4999833;28;20530;-66
2022/08/17 07:57:26;;;;;;;6.43;4.10;;;25.00;69.20;;;;;;4998427;28;20460;-67
2022/08/17 08:00:14;;;;;;;5.07;4.30;;;25.20;70.40;;;;;;4999729;28;20568;-67
2022/08/17 08:02:44;;;;;;;4.53;4.00;;;25.50;68.10;;;;;;4989528;28;20896;-67
2022/08/17 08:05:17;;;;;;;4.93;4.13;;;25.60;68.30;;;;;;5000197;28;20473;-67
2022/08/17 08:07:53;;;;;;;5.67;4.50;;;25.80;68.80;;;;;;4997694;28;20508;-67
2022/08/17 08:10:29;;;;;;;5.77;4.43;;;26.10;67.50;;;;;;4996883;28;20447;-68
2022/08/17 08:13:07;;;;;;;5.47;4.03;;;26.30;65.90;;;;;;5001602;28;20474;-67
2022/08/17 08:15:38;;;;;;;5.10;4.60;;;26.40;64.80;;;;;;4997927;28;20447;-67
2022/08/17 08:18:22;;;;;;;7.10;5.23;;;26.60;64.70;;;;;;5000521;28;20452;-67
2022/08/17 08:20:55;;;;;;;5.37;4.40;;;26.80;65.00;;;;;;4996615;28;20521;-67
2022/08/17 08:23:40;;;;;;;7.60;5.13;;;27.10;63.30;;;;;;4998359;28;20561;-67
2022/08/17 08:26:20;;;;;;;6.80;4.90;;;27.30;62.30;;;;;;5000591;28;20918;-67
2022/08/17 08:28:55;;;;;;;6.57;5.40;;;27.50;62.40;;;;;;4998888;28;20443;-67
2022/08/17 08:31:33;;;;;;;7.20;3.97;;;27.70;62.20;;;;;;5001158;28;20439;-67
2022/08/17 08:34:11;;;;;;;6.33;4.70;;;28.00;60.70;;;;;;5000237;28;20435;-67
2022/08/17 08:36:47;;;;;;;7.13;5.20;;;28.20;59.10;;;;;;4998345;28;20514;-67
2022/08/17 08:39:20;;;;;;;4.90;4.30;;;28.40;58.80;;;;;;5001935;28;20447;-67
2022/08/17 08:41:57;;;;;;;5.40;4.70;;;28.60;57.80;;;;;;5001264;28;20906;-67
2022/08/17 08:44:35;;;;;;;11.03;4.47;;;28.80;56.90;;;;;;4997527;28;20497;-67
2022/08/17 08:47:10;;;;;;;7.70;4.50;;;29.00;57.00;;;;;;5002611;28;20442;-67
2022/08/17 08:50:01;;;;;;;5.60;4.80;;;29.20;55.80;;;;;;5002164;28;20889;-67
2022/08/17 08:52:50;;;;;;;8.90;4.97;;;29.50;54.60;;;;;;4995449;28;20443;-67
2022/08/17 08:55:22;;;;;;;5.00;4.50;;;29.60;53.60;;;;;;4994951;28;20502;-66
2022/08/17 08:57:56;;;;;;;6.33;4.60;;;29.80;52.70;;;;;;5000080;28;20471;-67
2022/08/17 09:00:27;;;;;;;4.60;4.03;;;29.90;51.40;;;;;;4995320;28;20470;-67
2022/08/17 09:03:19;;;;;;;7.87;5.10;;;30.10;49.90;;;;;;4999463;28;20480;-67
2022/08/17 09:06:25;;;;;;;5.30;4.17;;;30.30;50.50;;;;;;5000609;28;20448;-67
2022/08/17 09:09:01;;;;;;;4.80;4.30;;;30.60;49.80;;;;;;4940158;29;20433;-67
2022/08/17 09:11:36;;;;;;;4.57;3.37;;;30.80;49.80;;;;;;4935089;29;20464;-67
2022/08/17 09:14:13;;;;;;;4.17;3.50;;;31.00;48.10;;;;;;4976375;28;20456;-67
2022/08/17 09:16:47;;;;;;;4.93;4.23;;;31.30;47.00;;;;;;5003413;28;20490;-67
2022/08/17 09:19:20;;;;;;;4.17;3.40;;;31.60;45.20;;;;;;4998182;28;20478;-67
2022/08/17 09:21:58;;;;;;;4.13;3.47;;;31.80;43.80;;;;;;4996925;28;20574;-67
2022/08/17 09:24:31;;;;;;;6.50;3.90;;;32.00;43.00;;;;;;4997479;28;20494;-67
2022/08/17 09:27:03;;;;;;;4.17;3.77;;;32.20;42.90;;;;;;4994137;28;20943;-68
2022/08/17 09:29:33;;;;;;;4.57;3.60;;;32.30;42.00;;;;;;4993105;28;20990;-67
2022/08/17 09:32:17;;;;;;;5.03;4.37;;;32.50;42.20;;;;;;4990984;28;20440;-67
2022/08/17 09:34:51;;;;;;;4.20;3.40;;;32.60;41.60;;;;;;4992609;28;20451;-68
2022/08/17 09:37:23;;;;;;;3.90;3.40;;;32.80;40.60;;;;;;4992797;28;20533;-67
2022/08/17 09:39:59;;;;;;;3.83;3.43;;;32.90;39.10;;;;;;4993146;28;20505;-68
2022/08/17 09:42:31;;;;;;;4.37;3.97;;;32.80;37.30;;;;;;4991620;28;20494;-67
2022/08/17 09:45:06;;;;;;;4.93;4.30;;;32.70;39.60;;;;;;4996951;28;20498;-68
2022/08/17 09:47:45;;;;;;;5.83;4.30;;;32.90;41.10;;;;;;4991900;28;21016;-69
2022/08/17 09:50:20;;;;;;;4.53;4.13;;;33.00;41.80;;;;;;4997097;28;20510;-67
2022/08/17 09:52:49;;;;;;;4.30;3.90;;;33.20;40.70;;;;;;4995350;28;20439;-67
2022/08/17 09:55:16;;;;;;;5.93;4.03;;;33.40;40.40;;;;;;4998256;28;20570;-67
2022/08/17 09:57:57;;;;;;;5.37;4.23;;;33.50;39.20;;;;;;4997043;28;20494;-67
2022/08/17 10:00:28;;;;;;;4.77;4.30;;;33.70;39.30;;;;;;4995760;28;20498;-67
2022/08/17 10:03:20;;;;;;;4.83;4.13;;;33.80;38.90;;;;;;4997568;28;20763;-67
2022/08/17 10:05:55;;;;;;;8.43;3.90;;;34.10;38.80;;;;;;4997023;28;20517;-67
2022/08/17 10:08:30;;;;;;;5.10;4.00;;;34.40;37.20;;;;;;4997079;28;20443;-67
2022/08/17 10:11:22;;;;;;;8.70;3.93;;;34.60;38.00;;;;;;4996482;28;20439;-68
2022/08/17 10:13:59;;;;;;;4.80;4.23;;;34.90;37.60;;;;;;4996862;28;20826;-67
2022/08/17 10:16:35;;;;;;;5.80;3.63;;;35.20;37.10;;;;;;4997199;28;20445;-67
2022/08/17 10:19:12;;;;;;;5.30;4.10;;;35.40;35.80;;;;;;5000479;28;20923;-67
2022/08/17 10:27:33;;;;;;;8.00;4.30;;;35.80;34.40;;;;;;4990190;28;20427;-67
2022/08/17 10:30:03;;;;;;;8.13;4.43;;;35.80;34.90;;;;;;4992246;28;20436;-67
2022/08/17 10:32:33;;;;;;;8.30;3.80;;;36.00;34.50;;;;;;4992448;28;20506;-68
2022/08/17 10:35:24;;;;;;;6.23;4.07;;;36.10;34.50;;;;;;4992501;28;20471;-67
2022/08/17 10:38:13;;;;;;;3.53;3.20;;;36.10;33.60;;;;;;4989054;28;20518;-68
2022/08/17 10:40:48;;;;;;;5.60;4.00;;;36.00;34.00;;;;;;4992393;28;21056;-68
2022/08/17 10:43:28;;;;;;;4.40;3.93;;;36.10;33.60;;;;;;4992404;28;20486;-69
2022/08/17 10:46:03;;;;;;;4.97;4.47;;;36.20;32.90;;;;;;4992326;28;20478;-67
2022/08/17 10:48:33;;;;;;;3.93;3.50;;;36.10;31.40;;;;;;4992335;28;20446;-66
2022/08/17 10:51:07;;;;;;;5.63;4.73;;;35.90;30.10;;;;;;4991806;28;20487;-67
2022/08/17 10:53:51;;;;;;;5.37;3.97;;;35.80;31.00;;;;;;4992555;28;20491;-67
2022/08/17 10:56:24;;;;;;;4.57;3.50;;;35.60;31.00;;;;;;4992111;28;20485;-66
2022/08/17 10:58:53;;;;;;;5.30;3.70;;;35.60;31.90;;;;;;4992445;28;20467;-67
2022/08/17 11:01:44;;;;;;;6.57;4.07;;;35.50;31.90;;;;;;4991797;28;20477;-68
2022/08/17 11:04:37;;;;;;;6.37;4.63;;;35.60;31.70;;;;;;4991888;28;20479;-67
2022/08/17 11:07:15;;;;;;;7.97;4.27;;;35.70;32.90;;;;;;4991775;28;20475;-67
2022/08/17 11:13:02;;;;;;;5.30;4.23;;;36.00;33.00;;;;;;4991795;28;20463;-67
2022/08/17 11:15:44;;;;;;;4.40;4.00;;;36.20;30.50;;;;;;4992220;28;20946;-67
2022/08/17 11:18:29;;;;;;;4.60;3.80;;;36.20;29.50;;;;;;4992203;28;20444;-67
2022/08/17 11:21:27;;;;;;;6.50;4.30;;;36.30;30.40;;;;;;4991882;28;20942;-67
2022/08/17 11:24:15;;;;;;;4.40;3.80;;;36.30;30.50;;;;;;4991737;28;20802;-66
2022/08/17 11:26:47;;;;;;;5.40;4.30;;;36.40;30.70;;;;;;4990045;28;20463;-67
2022/08/17 11:29:26;;;;;;;9.37;4.37;;;36.40;31.20;;;;;;4991542;28;20455;-70
2022/08/17 11:32:06;;;;;;;4.57;4.10;;;36.50;31.40;;;;;;4990476;28;20490;-67
2022/08/17 11:34:34;;;;;;;4.43;4.03;;;36.60;30.80;;;;;;4992825;28;20451;-67
2022/08/17 11:37:36;;;;;;;8.47;5.00;;;36.70;31.20;;;;;;4989971;28;20436;-68
2022/08/17 11:40:23;;;;;;;7.07;4.50;;;36.90;30.80;;;;;;4977081;28;20447;-66
2022/08/17 11:43:28;;;;;;;6.70;4.73;;;37.00;30.20;;;;;;4991785;28;21021;-67
2022/08/17 11:46:07;;;;;;;6.47;4.53;;;37.30;30.10;;;;;;4987998;28;20443;-68
2022/08/17 11:51:57;;;;;;;7.80;4.93;;;37.70;29.70;;;;;;4990436;28;21081;-73
2022/08/17 11:54:40;;;;;;;4.67;4.03;;;37.70;29.00;;;;;;4990731;28;20436;-67
2022/08/17 11:58:00;;;;;;;5.23;3.80;;;37.60;28.90;;;;;;4991136;28;20538;-68
2022/08/17 12:00:51;;;;;;;4.90;4.50;;;37.40;29.50;;;;;;4989525;28;20439;-67
2022/08/17 12:03:43;;;;;;;4.07;3.67;;;37.30;29.80;;;;;;4991319;28;20922;-67
2022/08/17 12:06:26;;;;;;;6.63;4.60;;;37.10;30.40;;;;;;4988883;28;20506;-67
2022/08/17 12:08:56;;;;;;;5.00;4.50;;;37.20;30.60;;;;;;4991545;28;20814;-68
2022/08/17 12:11:28;;;;;;;6.70;4.33;;;37.10;31.30;;;;;;4991577;28;20526;-67
2022/08/17 12:13:59;;;;;;;4.57;3.60;;;37.00;30.00;;;;;;4991369;28;20903;-67
2022/08/17 12:16:26;;;;;;;6.63;4.23;;;37.00;30.20;;;;;;4991767;28;20447;-69
2022/08/17 12:18:57;;;;;;;7.30;3.90;;;36.90;31.10;;;;;;4991595;28;20436;-68
2022/08/17 12:21:45;;;;;;;7.40;4.10;;;37.00;31.20;;;;;;4990867;28;20447;-68
2022/08/17 12:24:34;;;;;;;4.27;3.87;;;37.00;30.90;;;;;;4991117;28;20539;-67
2022/08/17 12:27:04;;;;;;;4.50;4.10;;;37.00;30.30;;;;;;4991360;28;20438;-67
2022/08/17 12:29:34;;;;;;;5.00;4.03;;;36.90;29.90;;;;;;4991173;28;20444;-67
2022/08/17 12:32:02;;;;;;;8.17;3.93;;;36.80;29.50;;;;;;4993309;28;20936;-67
2022/08/17 12:34:36;;;;;;;7.13;4.33;;;36.60;30.10;;;;;;4994856;28;20461;-67
2022/08/17 12:37:07;;;;;;;5.73;3.93;;;36.50;30.90;;;;;;4990824;28;20528;-67
2022/08/17 12:39:34;;;;;;;5.00;3.63;;;36.30;31.90;;;;;;4994862;28;20490;-67
2022/08/17 12:42:01;;;;;;;4.77;3.90;;;36.10;31.50;;;;;;4994834;28;20474;-67
2022/08/17 12:44:30;;;;;;;6.47;4.27;;;35.90;30.40;;;;;;4994166;28;20526;-67
2022/08/17 12:47:05;;;;;;;4.60;4.20;;;35.80;31.10;;;;;;4994591;28;20539;-68
2022/08/17 12:49:35;;;;;;;4.37;3.80;;;35.70;31.00;;;;;;4994510;28;20522;-67
2022/08/17 12:52:12;;;;;;;7.73;4.00;;;35.60;31.40;;;;;;4990562;28;20830;-67
2022/08/17 12:54:46;;;;;;;5.33;4.07;;;35.60;32.10;;;;;;4994719;28;20861;-67
2022/08/17 12:57:16;;;;;;;5.60;4.30;;;35.50;32.90;;;;;;4990272;28;20443;-67
2022/08/17 12:59:47;;;;;;;4.77;4.20;;;35.50;31.80;;;;;;4994550;28;20551;-67
2022/08/17 13:02:27;;;;;;;6.07;3.77;;;35.40;32.70;;;;;;4994300;28;20448;-67
2022/08/17 13:04:55;;;;;;;4.40;3.90;;;35.30;32.50;;;;;;4991805;28;20514;-67
2022/08/17 13:07:28;;;;;;;5.60;5.10;;;35.20;32.00;;;;;;4994383;28;20440;-67
2022/08/17 13:09:55;;;;;;;5.17;3.90;;;35.10;32.10;;;;;;4990406;28;20467;-67
2022/08/17 13:12:31;;;;;;;5.63;4.10;;;35.00;32.50;;;;;;4994290;28;20585;-67
2022/08/17 13:14:58;;;;;;;6.40;4.47;;;34.90;32.20;;;;;;4993961;28;20523;-68
2022/08/17 13:17:32;;;;;;;6.93;4.03;;;34.80;31.90;;;;;;4994298;28;20475;-67
2022/08/17 13:19:59;;;;;;;5.37;4.10;;;34.80;31.80;;;;;;4994108;28;20526;-67
2022/08/17 13:22:32;;;;;;;5.33;4.53;;;34.80;31.90;;;;;;4993831;28;20447;-68
2022/08/17 13:25:05;;;;;;;7.20;4.20;;;34.80;31.50;;;;;;4990458;28;20467;-67
2022/08/17 13:27:33;;;;;;;7.23;4.00;;;34.80;31.90;;;;;;4994096;28;20871;-67
2022/08/17 13:30:02;;;;;;;7.83;3.53;;;35.00;32.80;;;;;;4993645;28;20443;-68
2022/08/17 13:32:39;;;;;;;5.00;4.10;;;35.00;32.50;;;;;;4993758;28;20502;-67
2022/08/17 13:35:42;;;;;;;6.10;4.57;;;35.00;31.60;;;;;;4993617;28;20518;-68
2022/08/17 13:38:12;;;;;;;4.03;3.47;;;35.00;31.20;;;;;;4993675;28;20439;-66
2022/08/17 13:40:44;;;;;;;4.93;4.43;;;34.90;31.10;;;;;;4993219;28;20440;-67
2022/08/17 13:43:11;;;;;;;5.70;4.57;;;34.70;30.60;;;;;;4991997;28;20479;-68
2022/08/17 13:45:51;;;;;;;4.13;3.57;;;34.50;31.20;;;;;;4993505;28;20439;-67